createdAt,value
2018-12-31T00:01:22.435Z,52.03
2018-12-31T00:03:51.920Z,41.83
2018-12-31T00:06:21.002Z,42.73
2018-12-31T00:08:50.173Z,35.07
2018-12-31T00:11:19.266Z,39.00
2018-12-31T00:13:48.366Z,39.27
2018-12-31T00:16:17.738Z,43.57
2018-12-31T00:18:46.834Z,38.70
2018-12-31T00:21:16.205Z,40.10
2018-12-31T00:23:47.671Z,44.03
2018-12-31T00:26:16.764Z,37.53
2018-12-31T00:28:47.485Z,41.73
2018-12-31T00:31:16.752Z,43.93
2018-12-31T00:33:45.841Z,48.73
2018-12-31T00:36:14.936Z,50.83
2018-12-31T00:38:46.960Z,48.63
2018-12-31T00:41:16.060Z,49.20
2018-12-31T00:43:45.144Z,54.90
2018-12-31T00:46:14.243Z,49.53
2018-12-31T00:48:43.333Z,42.73
2018-12-31T00:51:12.427Z,40.57
2018-12-31T00:53:41.516Z,39.47
2018-12-31T00:56:10.612Z,40.50
2018-12-31T00:58:39.700Z,48.53
2018-12-31T01:01:08.788Z,44.03
2018-12-31T01:03:37.872Z,38.40
2018-12-31T01:06:06.968Z,38.93
2018-12-31T01:08:36.051Z,35.20
2018-12-31T01:11:05.150Z,41.57
2018-12-31T01:13:34.241Z,39.77
2018-12-31T01:16:03.337Z,38.30
2018-12-31T01:18:32.423Z,39.37
2018-12-31T01:21:01.520Z,35.80
2018-12-31T01:23:30.598Z,36.13
2018-12-31T01:25:59.693Z,38.83
2018-12-31T01:28:28.777Z,35.50
2018-12-31T01:30:57.874Z,35.17
2018-12-31T01:33:26.972Z,35.00
2018-12-31T01:35:56.377Z,32.80
2018-12-31T01:38:25.458Z,32.40
2018-12-31T01:40:54.558Z,35.60
2018-12-31T01:43:23.649Z,36.03
2018-12-31T01:45:53.052Z,34.17
2018-12-31T01:48:22.141Z,34.90
2018-12-31T01:50:51.245Z,31.73
2018-12-31T01:53:20.332Z,32.57
2018-12-31T01:55:49.434Z,28.17
2018-12-31T01:58:18.526Z,32.90
2018-12-31T02:00:47.606Z,30.03
2018-12-31T02:03:16.701Z,30.30
2018-12-31T02:05:45.785Z,29.47
2018-12-31T02:08:14.890Z,26.40
2018-12-31T02:10:43.975Z,26.53
2018-12-31T02:13:13.065Z,25.57
2018-12-31T02:15:42.160Z,28.37
2018-12-31T02:18:11.256Z,25.00
2018-12-31T02:20:40.352Z,26.33
2018-12-31T02:23:09.451Z,25.57
2018-12-31T02:25:38.783Z,26.13
2018-12-31T02:28:07.886Z,25.37
2018-12-31T02:30:36.972Z,23.73
2018-12-31T02:33:06.070Z,28.53
2018-12-31T02:35:35.164Z,26.60
2018-12-31T02:38:04.278Z,25.07
2018-12-31T02:40:33.357Z,24.30
2018-12-31T02:43:02.453Z,27.43
2018-12-31T02:45:31.542Z,24.10
2018-12-31T02:48:00.638Z,26.50
2018-12-31T02:50:29.722Z,24.67
2018-12-31T02:52:58.822Z,21.87
2018-12-31T02:55:27.916Z,22.60
2018-12-31T02:57:57.981Z,26.73
2018-12-31T03:00:27.384Z,25.03
2018-12-31T03:02:56.486Z,27.60
2018-12-31T03:05:25.573Z,24.07
2018-12-31T03:07:54.692Z,28.93
2018-12-31T03:10:23.773Z,24.23
2018-12-31T03:12:52.867Z,25.17
2018-12-31T03:15:21.972Z,23.80
2018-12-31T03:17:51.067Z,24.07
2018-12-31T03:20:20.206Z,23.57
2018-12-31T03:22:49.307Z,23.73
2018-12-31T03:25:18.389Z,24.77
2018-12-31T03:27:47.484Z,24.23
2018-12-31T03:30:16.566Z,24.07
2018-12-31T03:32:45.664Z,24.37
2018-12-31T03:35:14.749Z,25.87
2018-12-31T03:37:43.852Z,21.53
2018-12-31T03:40:12.937Z,25.60
2018-12-31T03:42:42.043Z,22.80
2018-12-31T03:45:11.133Z,25.67
2018-12-31T03:47:40.625Z,22.20
2018-12-31T03:50:09.705Z,25.70
2018-12-31T03:52:38.804Z,20.80
2018-12-31T03:55:07.890Z,23.37
2018-12-31T03:57:36.990Z,23.37
2018-12-31T04:00:06.245Z,22.27
2018-12-31T04:02:35.347Z,21.60
2018-12-31T04:05:04.801Z,23.93
2018-12-31T04:07:33.903Z,20.53
2018-12-31T04:10:03.074Z,21.13
2018-12-31T04:12:32.449Z,21.63
2018-12-31T04:15:01.525Z,20.30
2018-12-31T04:17:30.620Z,21.40
2018-12-31T04:19:59.756Z,20.20
2018-12-31T04:22:28.854Z,18.33
2018-12-31T04:24:57.933Z,20.23
2018-12-31T04:27:27.038Z,22.77
2018-12-31T04:29:56.123Z,18.87
2018-12-31T04:32:25.308Z,17.87
2018-12-31T04:34:54.378Z,18.27
2018-12-31T04:37:23.472Z,19.40
2018-12-31T04:39:52.555Z,21.83
2018-12-31T04:42:21.652Z,19.90
2018-12-31T04:44:50.744Z,16.50
2018-12-31T04:47:20.096Z,19.83
2018-12-31T04:49:49.185Z,18.00
2018-12-31T04:52:18.282Z,19.70
2018-12-31T04:54:47.370Z,20.07
2018-12-31T04:57:16.474Z,18.30
2018-12-31T04:59:45.628Z,20.33
2018-12-31T05:02:14.735Z,18.53
2018-12-31T05:04:43.813Z,19.10
2018-12-31T05:07:12.912Z,18.73
2018-12-31T05:09:41.995Z,18.87
2018-12-31T05:12:11.092Z,16.07
2018-12-31T05:14:40.177Z,17.17
2018-12-31T05:17:09.275Z,16.07
2018-12-31T05:19:38.361Z,14.83
2018-12-31T05:22:07.449Z,13.77
2018-12-31T05:24:36.529Z,19.50
2018-12-31T05:27:05.637Z,21.93
2018-12-31T05:29:34.710Z,15.03
2018-12-31T05:32:03.816Z,22.67
2018-12-31T05:34:32.902Z,19.30
2018-12-31T05:37:01.989Z,15.73
2018-12-31T05:39:31.090Z,15.57
2018-12-31T05:42:00.177Z,15.13
2018-12-31T05:44:29.322Z,15.37
2018-12-31T05:46:58.452Z,15.70
2018-12-31T05:49:27.543Z,15.80
2018-12-31T05:51:56.633Z,16.83
2018-12-31T05:54:25.734Z,15.83
2018-12-31T05:56:54.832Z,18.87
2018-12-31T05:59:23.938Z,18.50
2018-12-31T06:01:53.029Z,25.17
2018-12-31T06:04:22.117Z,35.53
2018-12-31T06:06:51.205Z,36.13
2018-12-31T06:09:20.326Z,27.30
2018-12-31T06:11:49.422Z,15.87
2018-12-31T06:14:18.517Z,30.77
2018-12-31T06:16:47.608Z,44.57
2018-12-31T06:19:16.696Z,41.10
2018-12-31T06:21:45.785Z,19.70
2018-12-31T06:24:14.897Z,27.37
2018-12-31T06:26:43.997Z,49.67
2018-12-31T06:29:13.094Z,70.63
2018-12-31T06:31:42.190Z,224.50
2018-12-31T06:34:11.294Z,560.07
2018-12-31T06:36:40.389Z,36.63
2018-12-31T06:39:09.497Z,16.83
2018-12-31T06:41:38.581Z,64.77
2018-12-31T06:44:07.675Z,33.53
2018-12-31T06:46:36.772Z,23.23
2018-12-31T06:49:05.900Z,21.73
2018-12-31T06:51:34.995Z,37.13
2018-12-31T06:54:04.080Z,31.63
2018-12-31T06:56:33.221Z,31.43
2018-12-31T06:59:02.354Z,49.40
2018-12-31T07:01:31.437Z,56.13
2018-12-31T07:04:00.538Z,69.83
2018-12-31T07:06:29.618Z,94.13
2018-12-31T07:08:58.709Z,49.63
2018-12-31T07:11:27.793Z,55.77
2018-12-31T07:13:56.890Z,18.60
2018-12-31T07:16:25.985Z,42.50
2018-12-31T07:18:55.077Z,44.37
2018-12-31T07:21:24.295Z,54.93
2018-12-31T07:23:53.376Z,33.70
2018-12-31T07:26:22.465Z,159.20
2018-12-31T07:28:52.528Z,47.27
2018-12-31T07:31:21.619Z,24.43
2018-12-31T07:33:50.705Z,53.33
2018-12-31T07:36:19.807Z,34.53
2018-12-31T07:38:48.961Z,38.03
2018-12-31T07:41:18.057Z,36.10
2018-12-31T07:43:47.141Z,33.73
2018-12-31T07:46:16.229Z,19.30
2018-12-31T07:48:45.313Z,21.83
2018-12-31T07:51:14.417Z,18.93
2018-12-31T07:53:43.506Z,17.97
2018-12-31T07:56:12.601Z,24.13
2018-12-31T07:58:41.689Z,30.80
2018-12-31T08:01:10.867Z,61.67
2018-12-31T08:03:39.958Z,39.50
2018-12-31T08:06:09.054Z,41.97
2018-12-31T08:08:38.151Z,25.53
2018-12-31T08:11:07.246Z,14.37
2018-12-31T08:13:36.500Z,14.10
2018-12-31T08:16:05.613Z,15.57
2018-12-31T08:18:34.705Z,12.67
2018-12-31T08:21:03.798Z,10.50
2018-12-31T08:23:32.878Z,12.20
2018-12-31T08:26:01.997Z,13.07
2018-12-31T08:28:31.081Z,10.77
2018-12-31T08:31:00.178Z,9.93
2018-12-31T08:33:29.258Z,10.50
2018-12-31T08:35:58.345Z,12.63
2018-12-31T08:38:27.428Z,13.30
2018-12-31T08:40:56.526Z,15.10
2018-12-31T08:43:25.618Z,117.70
2018-12-31T08:45:57.123Z,17.00
2018-12-31T08:48:26.465Z,38.43
2018-12-31T08:50:55.568Z,27.03
2018-12-31T08:53:25.633Z,14.00
2018-12-31T08:55:54.734Z,18.60
2018-12-31T08:58:23.854Z,12.23
2018-12-31T09:00:52.960Z,12.33
2018-12-31T09:03:22.054Z,21.00
2018-12-31T09:05:51.158Z,13.50
2018-12-31T09:08:20.239Z,17.03
2018-12-31T09:10:50.406Z,23.47
2018-12-31T09:13:19.496Z,42.50
2018-12-31T09:15:48.580Z,35.60
2018-12-31T09:18:17.665Z,36.43
2018-12-31T09:20:46.777Z,47.93
2018-12-31T09:23:15.857Z,26.67
2018-12-31T09:25:44.952Z,20.20
2018-12-31T09:28:14.053Z,22.33
2018-12-31T09:30:43.141Z,22.10
2018-12-31T09:33:12.239Z,27.83
2018-12-31T09:35:41.326Z,26.53
2018-12-31T09:38:10.435Z,18.87
2018-12-31T09:40:39.576Z,21.70
2018-12-31T09:43:08.677Z,20.37
2018-12-31T09:45:37.768Z,28.97
2018-12-31T09:48:06.867Z,34.30
2018-12-31T09:50:35.953Z,26.00
2018-12-31T09:53:05.042Z,19.60
2018-12-31T09:55:34.209Z,20.67
2018-12-31T09:58:03.293Z,21.77
2018-12-31T10:00:32.394Z,23.53
2018-12-31T10:03:01.484Z,20.90
2018-12-31T10:05:30.581Z,23.80
2018-12-31T10:07:59.674Z,23.13
2018-12-31T10:10:28.792Z,24.73
2018-12-31T10:12:57.874Z,24.57
2018-12-31T10:15:27.050Z,25.10
2018-12-31T10:17:56.143Z,24.57
2018-12-31T10:20:25.242Z,29.03
2018-12-31T10:22:54.361Z,23.63
2018-12-31T10:25:23.452Z,23.73
2018-12-31T10:27:52.566Z,28.53
2018-12-31T10:30:21.679Z,26.03
2018-12-31T10:32:50.749Z,21.87
2018-12-31T10:35:19.846Z,27.23
2018-12-31T10:37:48.948Z,23.30
2018-12-31T10:40:18.048Z,25.83
2018-12-31T10:42:47.132Z,21.53
2018-12-31T10:45:16.222Z,21.73
2018-12-31T10:47:45.312Z,23.80
2018-12-31T10:50:14.406Z,23.17
2018-12-31T10:52:43.509Z,23.53
2018-12-31T10:55:13.506Z,24.40
2018-12-31T10:57:42.613Z,23.67
2018-12-31T11:00:11.705Z,23.17
2018-12-31T11:02:40.806Z,24.07
2018-12-31T11:05:09.907Z,22.77
2018-12-31T11:07:39.001Z,21.50
2018-12-31T11:10:08.514Z,25.50
2018-12-31T11:12:38.879Z,25.83
2018-12-31T11:15:08.046Z,22.83
2018-12-31T11:17:37.141Z,24.53
2018-12-31T11:20:06.242Z,28.00
2018-12-31T11:22:35.333Z,26.53
2018-12-31T11:25:04.662Z,27.47
2018-12-31T11:27:33.815Z,28.53
2018-12-31T11:30:02.969Z,27.67
2018-12-31T11:32:33.262Z,29.23
2018-12-31T11:35:02.358Z,30.57
2018-12-31T11:37:34.835Z,31.30
2018-12-31T11:40:02.325Z,48.93
2018-12-31T11:42:31.476Z,36.13
2018-12-31T11:45:00.568Z,28.87
2018-12-31T11:47:29.727Z,45.17
2018-12-31T11:49:59.709Z,33.03
2018-12-31T11:52:28.910Z,25.30
2018-12-31T11:54:59.307Z,19.20
2018-12-31T11:57:28.414Z,18.67
2018-12-31T11:59:57.532Z,17.17
2018-12-31T12:02:26.649Z,18.10
2018-12-31T12:04:55.748Z,21.87
2018-12-31T12:07:24.916Z,47.73
2018-12-31T12:09:54.016Z,67.30
2018-12-31T12:12:23.274Z,43.27
2018-12-31T12:14:52.371Z,30.80
2018-12-31T12:17:21.457Z,47.80
2018-12-31T12:19:50.554Z,59.67
2018-12-31T12:22:19.649Z,47.07
2018-12-31T12:24:49.040Z,30.10
2018-12-31T12:27:18.126Z,24.17
2018-12-31T12:29:47.232Z,75.53
2018-12-31T12:32:16.318Z,98.73
2018-12-31T12:34:45.425Z,55.70
2018-12-31T12:37:14.723Z,33.50
2018-12-31T12:39:43.793Z,35.27
2018-12-31T12:42:12.913Z,24.27
2018-12-31T12:44:41.998Z,22.47
2018-12-31T12:47:11.372Z,21.93
2018-12-31T12:49:40.459Z,18.13
2018-12-31T12:52:09.553Z,18.83
2018-12-31T12:54:38.638Z,18.57
2018-12-31T12:57:07.734Z,19.27
2018-12-31T12:59:36.835Z,18.93
2018-12-31T13:02:05.937Z,23.40
2018-12-31T13:04:35.016Z,21.70
2018-12-31T13:07:04.131Z,27.57
2018-12-31T13:09:33.228Z,25.23
2018-12-31T13:12:02.343Z,22.93
2018-12-31T13:14:31.497Z,27.90
2018-12-31T13:17:00.581Z,28.80
2018-12-31T13:19:29.678Z,26.83
2018-12-31T13:21:58.841Z,31.67
2018-12-31T13:24:27.953Z,26.73
2018-12-31T13:26:57.306Z,24.20
2018-12-31T13:29:26.406Z,27.73
2018-12-31T13:31:55.510Z,27.97
2018-12-31T13:34:24.609Z,24.60
2018-12-31T13:36:54.672Z,25.07
2018-12-31T13:39:23.774Z,32.73
2018-12-31T13:41:52.870Z,29.17
2018-12-31T13:44:21.968Z,26.40
2018-12-31T13:46:51.068Z,29.10
2018-12-31T13:49:20.422Z,24.27
2018-12-31T13:51:49.509Z,25.23
2018-12-31T13:54:18.604Z,24.60
2018-12-31T13:56:47.691Z,23.60
2018-12-31T13:59:16.789Z,24.60
2018-12-31T14:01:46.261Z,27.20
2018-12-31T14:04:15.381Z,26.43
2018-12-31T14:06:44.978Z,29.50
2018-12-31T14:09:14.148Z,27.77
2018-12-31T14:11:43.256Z,27.23
2018-12-31T14:14:12.533Z,30.03
2018-12-31T14:16:41.665Z,31.87
2018-12-31T14:19:10.765Z,32.40
2018-12-31T14:21:39.943Z,48.93
2018-12-31T14:24:09.036Z,34.67
2018-12-31T14:26:38.138Z,33.27
2018-12-31T14:29:07.241Z,28.90
2018-12-31T14:31:36.332Z,35.63
2018-12-31T14:34:05.547Z,44.10
2018-12-31T14:36:34.791Z,42.87
2018-12-31T14:39:05.781Z,39.30
2018-12-31T14:41:35.202Z,41.43
2018-12-31T14:44:04.345Z,38.83
2018-12-31T14:46:33.486Z,70.67
2018-12-31T14:49:02.617Z,56.47
2018-12-31T14:51:31.746Z,65.77
2018-12-31T14:54:00.888Z,47.83
2018-12-31T14:56:29.988Z,58.07
2018-12-31T14:58:59.115Z,49.07
2018-12-31T15:01:28.263Z,36.90
2018-12-31T15:03:57.352Z,46.40
2018-12-31T15:06:26.516Z,44.10
2018-12-31T15:08:55.630Z,37.33
2018-12-31T15:11:24.734Z,55.03
2018-12-31T15:13:54.052Z,51.53
2018-12-31T15:16:23.162Z,83.27
2018-12-31T15:18:52.252Z,145.33
2018-12-31T15:21:21.350Z,67.97
2018-12-31T15:23:50.453Z,130.63
2018-12-31T15:26:19.569Z,134.77
2018-12-31T15:28:48.657Z,77.53
2018-12-31T15:31:17.984Z,115.30
2018-12-31T15:33:47.497Z,146.13
2018-12-31T15:36:16.606Z,167.53
2018-12-31T15:38:45.696Z,97.27
2018-12-31T15:41:14.808Z,61.93
2018-12-31T15:43:43.894Z,55.63
2018-12-31T15:46:19.998Z,46.80
2018-12-31T15:48:43.786Z,43.57
2018-12-31T15:51:13.358Z,47.97
2018-12-31T15:53:43.208Z,59.93
2018-12-31T15:56:12.308Z,56.50
2018-12-31T15:58:41.648Z,68.90
2018-12-31T16:01:10.739Z,71.70
2018-12-31T16:03:40.316Z,143.77
2018-12-31T16:06:10.342Z,233.73
2018-12-31T16:08:39.442Z,133.37
2018-12-31T16:11:08.531Z,103.87
2018-12-31T16:13:37.706Z,101.30
2018-12-31T16:16:07.059Z,72.70
2018-12-31T16:18:36.169Z,84.40
2018-12-31T16:21:05.909Z,56.27
2018-12-31T16:23:35.190Z,58.43
2018-12-31T16:26:04.300Z,51.43
2018-12-31T16:28:33.653Z,59.67
2018-12-31T16:31:03.553Z,55.30
2018-12-31T16:33:32.653Z,49.20
2018-12-31T16:36:01.737Z,43.87
2018-12-31T16:38:30.920Z,45.30
2018-12-31T16:41:00.299Z,49.23
2018-12-31T16:43:29.384Z,44.00
2018-12-31T16:45:58.472Z,48.13
2018-12-31T16:48:27.579Z,63.97
2018-12-31T16:50:56.673Z,63.53
2018-12-31T16:53:26.136Z,48.20
2018-12-31T16:55:55.217Z,52.37
2018-12-31T16:58:24.663Z,60.07
2018-12-31T17:00:53.746Z,43.20
2018-12-31T17:03:22.842Z,46.80
2018-12-31T17:05:52.451Z,47.03
2018-12-31T17:08:21.545Z,47.97
2018-12-31T17:10:50.940Z,44.80
2018-12-31T17:13:20.574Z,46.10
2018-12-31T17:15:49.657Z,52.00
2018-12-31T17:18:19.132Z,58.17
2018-12-31T17:20:48.217Z,65.97
2018-12-31T17:23:17.337Z,123.43
2018-12-31T17:25:46.438Z,111.20
2018-12-31T17:28:15.533Z,127.47
2018-12-31T17:30:45.455Z,118.20
2018-12-31T17:33:14.565Z,127.00
2018-12-31T17:35:43.912Z,129.27
2018-12-31T17:38:12.988Z,94.47
2018-12-31T17:40:42.089Z,238.10
2018-12-31T17:43:12.056Z,193.23
2018-12-31T17:45:41.177Z,143.70
2018-12-31T17:48:10.280Z,257.33
2018-12-31T17:50:39.407Z,202.63
2018-12-31T17:53:08.849Z,193.33
2018-12-31T17:55:38.320Z,125.77
2018-12-31T17:58:07.406Z,154.03
2018-12-31T18:00:36.518Z,159.13
2018-12-31T18:03:05.616Z,180.73
2018-12-31T18:05:34.722Z,142.67
2018-12-31T18:08:04.090Z,149.30
2018-12-31T18:10:33.196Z,128.83
2018-12-31T18:13:02.301Z,108.23
2018-12-31T18:15:31.405Z,311.23
2018-12-31T18:18:00.516Z,319.57
2018-12-31T18:20:30.959Z,148.00
2018-12-31T18:23:00.363Z,157.30
2018-12-31T18:25:30.435Z,114.23
2018-12-31T18:27:59.543Z,130.47
2018-12-31T18:30:28.651Z,109.43
2018-12-31T18:32:58.011Z,93.47
2018-12-31T18:35:27.141Z,88.80
2018-12-31T18:37:56.234Z,110.63
2018-12-31T18:40:25.348Z,126.73
2018-12-31T18:42:54.442Z,105.57
2018-12-31T18:45:23.913Z,175.33
2018-12-31T18:47:53.002Z,88.93
2018-12-31T18:50:22.103Z,126.67
2018-12-31T18:52:51.185Z,79.10
2018-12-31T18:55:20.277Z,70.27
2018-12-31T18:57:49.751Z,143.67
2018-12-31T19:00:19.158Z,113.37
2018-12-31T19:02:48.265Z,147.57
2018-12-31T19:05:17.350Z,90.53
2018-12-31T19:07:46.513Z,103.50
2018-12-31T19:10:15.881Z,93.17
2018-12-31T19:12:44.982Z,84.10
2018-12-31T19:15:14.067Z,74.33
2018-12-31T19:17:43.160Z,75.07
2018-12-31T19:20:12.540Z,104.77
2018-12-31T19:22:42.008Z,97.47
2018-12-31T19:25:11.387Z,217.03
2018-12-31T19:27:40.753Z,123.93
2018-12-31T19:30:09.844Z,77.73
2018-12-31T19:32:38.977Z,64.53
2018-12-31T19:35:08.613Z,58.60
2018-12-31T19:37:37.716Z,58.83
2018-12-31T19:40:06.838Z,67.60
2018-12-31T19:42:35.928Z,73.83
2018-12-31T19:45:05.076Z,65.67
2018-12-31T19:47:34.598Z,60.20
2018-12-31T19:50:04.649Z,55.30
2018-12-31T19:52:33.786Z,66.57
2018-12-31T19:55:04.185Z,60.57
2018-12-31T19:57:33.295Z,58.57
2018-12-31T20:00:02.662Z,55.37
2018-12-31T20:02:31.779Z,52.33
2018-12-31T20:05:00.856Z,49.03
2018-12-31T20:07:29.994Z,57.37
2018-12-31T20:09:59.076Z,60.53
2018-12-31T20:12:28.187Z,58.57
2018-12-31T20:14:57.398Z,53.53
2018-12-31T20:17:26.488Z,54.00
2018-12-31T20:19:55.578Z,52.27
2018-12-31T20:22:24.760Z,54.33
2018-12-31T20:24:54.249Z,52.63
2018-12-31T20:27:23.378Z,52.00
2018-12-31T20:29:52.495Z,57.87
2018-12-31T20:32:21.585Z,56.77
2018-12-31T20:34:50.755Z,62.53
2018-12-31T20:37:19.866Z,58.50
2018-12-31T20:39:51.665Z,49.27
2018-12-31T20:42:20.748Z,74.40
2018-12-31T20:44:49.866Z,78.87
2018-12-31T20:47:19.037Z,82.33
2018-12-31T20:49:48.226Z,86.53
2018-12-31T20:52:17.314Z,84.23
2018-12-31T20:54:46.400Z,66.23
2018-12-31T20:57:15.617Z,58.20
2018-12-31T20:59:44.746Z,55.40
2018-12-31T21:02:13.894Z,54.53
2018-12-31T21:04:43.057Z,61.40
2018-12-31T21:07:12.153Z,51.63
2018-12-31T21:09:42.379Z,50.93
2018-12-31T21:12:11.491Z,56.80
2018-12-31T21:14:40.584Z,57.00
2018-12-31T21:17:11.076Z,55.97
2018-12-31T21:19:40.181Z,49.23
2018-12-31T21:22:09.264Z,55.07
2018-12-31T21:24:38.407Z,55.10
2018-12-31T21:27:07.577Z,66.47
2018-12-31T21:29:36.756Z,108.63
2018-12-31T21:32:05.853Z,89.17
2018-12-31T21:34:34.996Z,59.63
2018-12-31T21:37:04.144Z,62.43
2018-12-31T21:39:33.562Z,57.60
2018-12-31T21:42:02.708Z,67.50
2018-12-31T21:44:32.091Z,59.93
2018-12-31T21:47:01.169Z,58.33
2018-12-31T21:49:30.272Z,71.03
2018-12-31T21:51:59.554Z,68.07
2018-12-31T21:54:28.676Z,66.57
2018-12-31T21:56:58.171Z,72.80
2018-12-31T21:59:27.270Z,63.43
2018-12-31T22:01:56.368Z,58.60
2018-12-31T22:04:25.468Z,60.50
2018-12-31T22:06:54.558Z,66.00
2018-12-31T22:09:24.699Z,62.73
2018-12-31T22:11:53.895Z,63.40
2018-12-31T22:14:23.285Z,107.33
2018-12-31T22:16:52.734Z,110.27
2018-12-31T22:19:22.179Z,77.50
2018-12-31T22:21:54.628Z,68.03
2018-12-31T22:24:25.141Z,49.27
2018-12-31T22:26:54.672Z,50.10
2018-12-31T22:29:25.601Z,47.90
2018-12-31T22:31:55.042Z,59.40
2018-12-31T22:34:24.938Z,236.80
2018-12-31T22:36:54.411Z,83.83
2018-12-31T22:39:23.846Z,60.80
2018-12-31T22:41:53.042Z,102.27
2018-12-31T22:44:22.175Z,119.37
2018-12-31T22:46:51.571Z,127.20
2018-12-31T22:49:20.662Z,217.20
2018-12-31T22:51:49.821Z,122.47
2018-12-31T22:54:19.056Z,69.63
2018-12-31T22:56:48.247Z,69.47
2018-12-31T22:59:17.678Z,52.30
2018-12-31T23:01:46.851Z,315.63
2018-12-31T23:04:15.962Z,1261.93
2018-12-31T23:06:47.169Z,1864.43
2018-12-31T23:09:16.252Z,1157.07
2018-12-31T23:11:45.389Z,1073.47
2018-12-31T23:14:14.477Z,1077.73
2018-12-31T23:16:43.670Z,1488.13
2018-12-31T23:19:13.316Z,1374.53
2018-12-31T23:21:42.500Z,1136.50
2018-12-31T23:24:11.694Z,848.40
2018-12-31T23:26:40.861Z,581.70
2018-12-31T23:29:09.963Z,442.83
2018-12-31T23:31:39.121Z,336.87
2018-12-31T23:34:08.234Z,302.03
2018-12-31T23:36:37.823Z,350.77
2018-12-31T23:39:06.999Z,426.40
2018-12-31T23:41:36.101Z,530.77
2018-12-31T23:44:05.570Z,396.37
2018-12-31T23:46:34.967Z,439.50
2018-12-31T23:49:04.506Z,386.20
2018-12-31T23:51:33.618Z,370.93
2018-12-31T23:54:02.724Z,205.90
2018-12-31T23:56:31.844Z,247.53
2018-12-31T23:59:00.973Z,249.13
